sensor_id;sensor_type;location;lat;lon;timestamp;pressure;altitude;pressure_sealevel;temperature;humidity
62025;BME280;47978;49.118;12.146;2023-09-19T00:01:25;97067.06;;;14.59;100.00
62025;BME280;47978;49.118;12.146;2023-09-19T00:05:27;97060.38;;;14.60;100.00
62025;BME280;47978;49.118;12.146;2023-09-19T00:09:28;97068.22;;;14.58;100.00
62025;BME280;47978;49.118;12.146;2023-09-19T00:13:30;97065.69;;;14.66;100.00
62025;BME280;47978;49.118;12.146;2023-09-19T00:17:33;97060.00;;;14.62;100.00
62025;BME280;47978;49.118;12.146;2023-09-19T00:21:35;97060.97;;;14.66;100.00
62025;BME280;47978;49.118;12.146;2023-09-19T00:25:36;97061.06;;;14.57;100.00
62025;BME280;47978;49.118;12.146;2023-09-19T00:29:39;97056.28;;;14.58;100.00
62025;BME280;47978;49.118;12.146;2023-09-19T00:33:41;97061.28;;;14.65;100.00
62025;BME280;47978;49.118;12.146;2023-09-19T00:37:43;97059.00;;;14.79;100.00
62025;BME280;47978;49.118;12.146;2023-09-19T00:41:45;97056.19;;;15.12;100.00
62025;BME280;47978;49.118;12.146;2023-09-19T00:45:48;97056.19;;;15.24;100.00
62025;BME280;47978;49.118;12.146;2023-09-19T00:49:53;97055.25;;;15.33;100.00
62025;BME280;47978;49.118;12.146;2023-09-19T00:53:55;97049.00;;;15.23;100.00
62025;BME280;47978;49.118;12.146;2023-09-19T00:57:56;97054.44;;;15.32;100.00
62025;BME280;47978;49.118;12.146;2023-09-19T01:01:58;97056.19;;;15.12;100.00
62025;BME280;47978;49.118;12.146;2023-09-19T01:06:01;97063.03;;;15.15;100.00
62025;BME280;47978;49.118;12.146;2023-09-19T01:10:03;97055.59;;;15.19;100.00
62025;BME280;47978;49.118;12.146;2023-09-19T01:14:14;97058.84;;;15.21;100.00
62025;BME280;47978;49.118;12.146;2023-09-19T01:18:25;97064.16;;;15.14;100.00
62025;BME280;47978;49.118;12.146;2023-09-19T01:22:36;97054.91;;;15.10;100.00
62025;BME280;47978;49.118;12.146;2023-09-19T01:26:56;97068.44;;;14.99;100.00
62025;BME280;47978;49.118;12.146;2023-09-19T01:31:09;97069.41;;;15.03;100.00
62025;BME280;47978;49.118;12.146;2023-09-19T01:35:12;97067.91;;;15.05;100.00
62025;BME280;47978;49.118;12.146;2023-09-19T01:39:14;97074.72;;;14.96;100.00
62025;BME280;47978;49.118;12.146;2023-09-19T01:43:20;97083.31;;;15.03;100.00
62025;BME280;47978;49.118;12.146;2023-09-19T01:47:29;97075.31;;;15.14;100.00
62025;BME280;47978;49.118;12.146;2023-09-19T01:51:39;97092.22;;;14.96;100.00
62025;BME280;47978;49.118;12.146;2023-09-19T01:55:47;97090.97;;;15.06;100.00
62025;BME280;47978;49.118;12.146;2023-09-19T01:59:53;97087.63;;;15.13;100.00
62025;BME280;47978;49.118;12.146;2023-09-19T02:03:57;97078.56;;;15.16;100.00
62025;BME280;47978;49.118;12.146;2023-09-19T02:07:59;97091.81;;;15.19;100.00
62025;BME280;47978;49.118;12.146;2023-09-19T02:12:01;97092.97;;;15.05;100.00
62025;BME280;47978;49.118;12.146;2023-09-19T02:16:03;97096.19;;;14.95;100.00
62025;BME280;47978;49.118;12.146;2023-09-19T02:20:07;97095.00;;;14.96;100.00
62025;BME280;47978;49.118;12.146;2023-09-19T02:24:09;97099.78;;;15.08;100.00
62025;BME280;47978;49.118;12.146;2023-09-19T02:28:10;97092.03;;;15.14;100.00
62025;BME280;47978;49.118;12.146;2023-09-19T02:32:12;97091.09;;;15.10;100.00
62025;BME280;47978;49.118;12.146;2023-09-19T02:36:15;97105.50;;;15.12;100.00
62025;BME280;47978;49.118;12.146;2023-09-19T02:40:17;97095.06;;;15.09;100.00
62025;BME280;47978;49.118;12.146;2023-09-19T02:44:18;97096.66;;;15.10;100.00
62025;BME280;47978;49.118;12.146;2023-09-19T02:48:20;97097.56;;;14.89;100.00
62025;BME280;47978;49.118;12.146;2023-09-19T02:52:23;97105.03;;;14.76;100.00
62025;BME280;47978;49.118;12.146;2023-09-19T02:56:25;97104.66;;;14.66;100.00
62025;BME280;47978;49.118;12.146;2023-09-19T03:00:27;97119.72;;;14.65;100.00
62025;BME280;47978;49.118;12.146;2023-09-19T03:04:28;97113.69;;;14.62;100.00
62025;BME280;47978;49.118;12.146;2023-09-19T03:08:31;97127.59;;;14.62;100.00
62025;BME280;47978;49.118;12.146;2023-09-19T03:12:33;97119.03;;;14.68;100.00
62025;BME280;47978;49.118;12.146;2023-09-19T03:16:34;97118.25;;;14.67;100.00
62025;BME280;47978;49.118;12.146;2023-09-19T03:20:36;97121.72;;;14.64;100.00
62025;BME280;47978;49.118;12.146;2023-09-19T03:24:39;97119.03;;;14.68;100.00
62025;BME280;47978;49.118;12.146;2023-09-19T03:28:41;97133.53;;;14.61;100.00
62025;BME280;47978;49.118;12.146;2023-09-19T03:32:46;97137.91;;;14.62;100.00
62025;BME280;47978;49.118;12.146;2023-09-19T03:36:48;97137.81;;;14.58;100.00
62025;BME280;47978;49.118;12.146;2023-09-19T03:40:51;97141.50;;;14.62;100.00
62025;BME280;47978;49.118;12.146;2023-09-19T03:44:52;97145.81;;;14.60;100.00
62025;BME280;47978;49.118;12.146;2023-09-19T03:48:54;97138.03;;;14.66;100.00
62025;BME280;47978;49.118;12.146;2023-09-19T03:52:56;97145.38;;;14.70;100.00
62025;BME280;47978;49.118;12.146;2023-09-19T03:56:59;97147.75;;;14.80;100.00
62025;BME280;47978;49.118;12.146;2023-09-19T04:01:00;97143.63;;;14.99;100.00
62025;BME280;47978;49.118;12.146;2023-09-19T04:05:02;97154.47;;;14.79;100.00
62025;BME280;47978;49.118;12.146;2023-09-19T04:09:04;97152.25;;;15.06;100.00
62025;BME280;47978;49.118;12.146;2023-09-19T04:13:07;97155.06;;;15.18;100.00
62025;BME280;47978;49.118;12.146;2023-09-19T04:17:09;97151.47;;;15.18;100.00
62025;BME280;47978;49.118;12.146;2023-09-19T04:21:12;97153.56;;;15.33;100.00
62025;BME280;47978;49.118;12.146;2023-09-19T04:25:13;97158.81;;;15.35;100.00
62025;BME280;47978;49.118;12.146;2023-09-19T04:29:16;97156.66;;;15.07;100.00
62025;BME280;47978;49.118;12.146;2023-09-19T04:33:18;97162.38;;;15.23;100.00
62025;BME280;47978;49.118;12.146;2023-09-19T04:37:19;97163.13;;;14.99;100.00
62025;BME280;47978;49.118;12.146;2023-09-19T04:41:21;97168.78;;;15.23;100.00
62025;BME280;47978;49.118;12.146;2023-09-19T04:45:24;97175.06;;;15.33;100.00
62025;BME280;47978;49.118;12.146;2023-09-19T04:49:25;97172.69;;;15.22;100.00
62025;BME280;47978;49.118;12.146;2023-09-19T04:53:27;97182.91;;;14.85;100.00
62025;BME280;47978;49.118;12.146;2023-09-19T04:57:28;97177.97;;;14.70;100.00
62025;BME280;47978;49.118;12.146;2023-09-19T05:01:31;97186.56;;;14.98;100.00
62025;BME280;47978;49.118;12.146;2023-09-19T05:05:33;97196.75;;;14.94;100.00
62025;BME280;47978;49.118;12.146;2023-09-19T05:09:34;97194.31;;;14.92;100.00
62025;BME280;47978;49.118;12.146;2023-09-19T05:13:36;97196.88;;;14.97;100.00
62025;BME280;47978;49.118;12.146;2023-09-19T05:17:39;97195.44;;;15.24;100.00
62025;BME280;47978;49.118;12.146;2023-09-19T05:21:41;97198.84;;;15.30;100.00
62025;BME280;47978;49.118;12.146;2023-09-19T05:25:42;97204.22;;;15.47;100.00
62025;BME280;47978;49.118;12.146;2023-09-19T05:29:44;97205.84;;;15.48;100.00
62025;BME280;47978;49.118;12.146;2023-09-19T05:33:47;97203.84;;;15.37;100.00
62025;BME280;47978;49.118;12.146;2023-09-19T05:37:50;97211.34;;;15.57;100.00
62025;BME280;47978;49.118;12.146;2023-09-19T05:41:52;97198.25;;;15.37;100.00
62025;BME280;47978;49.118;12.146;2023-09-19T05:45:53;97210.00;;;15.42;100.00
62025;BME280;47978;49.118;12.146;2023-09-19T05:49:56;97210.97;;;15.46;100.00
62025;BME280;47978;49.118;12.146;2023-09-19T05:53:58;97222.31;;;15.41;100.00
62025;BME280;47978;49.118;12.146;2023-09-19T05:57:59;97221.03;;;15.39;100.00
62025;BME280;47978;49.118;12.146;2023-09-19T06:02:01;97224.63;;;15.39;100.00
62025;BME280;47978;49.118;12.146;2023-09-19T06:06:04;97225.63;;;15.22;100.00
62025;BME280;47978;49.118;12.146;2023-09-19T06:10:06;97237.03;;;15.29;100.00
62025;BME280;47978;49.118;12.146;2023-09-19T06:14:07;97238.44;;;15.02;100.00
62025;BME280;47978;49.118;12.146;2023-09-19T06:18:11;97241.31;;;15.27;100.00
62025;BME280;47978;49.118;12.146;2023-09-19T06:22:16;97255.13;;;15.23;100.00
62025;BME280;47978;49.118;12.146;2023-09-19T06:26:17;97259.25;;;15.84;100.00
62025;BME280;47978;49.118;12.146;2023-09-19T06:30:20;97258.06;;;15.85;100.00
62025;BME280;47978;49.118;12.146;2023-09-19T06:34:22;97257.06;;;16.26;100.00
62025;BME280;47978;49.118;12.146;2023-09-19T06:38:25;97273.34;;;16.24;100.00
62025;BME280;47978;49.118;12.146;2023-09-19T06:42:26;97286.81;;;16.22;100.00
62025;BME280;47978;49.118;12.146;2023-09-19T06:46:29;97282.19;;;16.26;100.00
62025;BME280;47978;49.118;12.146;2023-09-19T06:50:30;97284.03;;;16.34;100.00
62025;BME280;47978;49.118;12.146;2023-09-19T06:54:33;97280.06;;;16.48;100.00
62025;BME280;47978;49.118;12.146;2023-09-19T06:58:35;97275.44;;;16.52;100.00
62025;BME280;47978;49.118;12.146;2023-09-19T07:02:36;97284.38;;;16.57;100.00
62025;BME280;47978;49.118;12.146;2023-09-19T07:06:38;97282.97;;;16.63;99.42
62025;BME280;47978;49.118;12.146;2023-09-19T07:10:41;97292.59;;;17.03;98.42
62025;BME280;47978;49.118;12.146;2023-09-19T07:14:43;97290.38;;;17.37;95.79
62025;BME280;47978;49.118;12.146;2023-09-19T07:18:45;97296.00;;;17.52;93.36
62025;BME280;47978;49.118;12.146;2023-09-19T07:22:46;97292.09;;;17.41;93.89
62025;BME280;47978;49.118;12.146;2023-09-19T07:26:49;97301.13;;;17.79;92.24
62025;BME280;47978;49.118;12.146;2023-09-19T07:30:51;97293.88;;;18.53;87.71
62025;BME280;47978;49.118;12.146;2023-09-19T07:34:53;97308.22;;;18.04;90.08
62025;BME280;47978;49.118;12.146;2023-09-19T07:38:54;97307.66;;;17.83;90.40
62025;BME280;47978;49.118;12.146;2023-09-19T07:43:03;97317.16;;;18.26;88.26
62025;BME280;47978;49.118;12.146;2023-09-19T07:47:05;97324.63;;;17.90;89.48
62025;BME280;47978;49.118;12.146;2023-09-19T07:51:07;97323.50;;;17.79;88.11
62025;BME280;47978;49.118;12.146;2023-09-19T07:55:09;97326.19;;;17.87;88.95
62025;BME280;47978;49.118;12.146;2023-09-19T07:59:11;97328.34;;;17.94;88.36
62025;BME280;47978;49.118;12.146;2023-09-19T08:03:13;97332.06;;;18.61;85.33
62025;BME280;47978;49.118;12.146;2023-09-19T08:07:18;97334.16;;;19.16;82.52
62025;BME280;47978;49.118;12.146;2023-09-19T08:11:20;97342.00;;;18.43;84.86
62025;BME280;47978;49.118;12.146;2023-09-19T08:15:22;97337.19;;;17.96;86.68
62025;BME280;47978;49.118;12.146;2023-09-19T08:19:24;97346.22;;;17.77;87.54
62025;BME280;47978;49.118;12.146;2023-09-19T08:23:26;97346.72;;;17.79;87.47
62025;BME280;47978;49.118;12.146;2023-09-19T08:27:28;97353.69;;;17.85;88.34
62025;BME280;47978;49.118;12.146;2023-09-19T08:31:31;97346.75;;;17.95;86.92
62025;BME280;47978;49.118;12.146;2023-09-19T08:35:32;97347.69;;;18.15;85.99
62025;BME280;47978;49.118;12.146;2023-09-19T08:39:34;97348.50;;;18.31;84.51
62025;BME280;47978;49.118;12.146;2023-09-19T08:43:36;97347.97;;;18.41;84.13
62025;BME280;47978;49.118;12.146;2023-09-19T08:47:46;97344.69;;;18.55;82.26
62025;BME280;47978;49.118;12.146;2023-09-19T08:51:49;97355.81;;;18.68;82.31
62025;BME280;47978;49.118;12.146;2023-09-19T08:55:54;97344.78;;;18.91;81.88
62025;BME280;47978;49.118;12.146;2023-09-19T08:59:56;97347.53;;;18.87;81.72
62025;BME280;47978;49.118;12.146;2023-09-19T09:04:01;97362.69;;;18.70;82.38
62025;BME280;47978;49.118;12.146;2023-09-19T09:08:05;97367.13;;;18.39;81.81
62025;BME280;47978;49.118;12.146;2023-09-19T09:12:08;97368.38;;;18.42;82.24
62025;BME280;47978;49.118;12.146;2023-09-19T09:16:11;97362.31;;;18.08;78.39
62025;BME280;47978;49.118;12.146;2023-09-19T09:20:15;97368.88;;;18.00;79.23
62025;BME280;47978;49.118;12.146;2023-09-19T09:24:26;97372.09;;;17.86;81.36
62025;BME280;47978;49.118;12.146;2023-09-19T09:28:29;97364.09;;;18.01;82.67
62025;BME280;47978;49.118;12.146;2023-09-19T09:32:30;97378.50;;;18.31;80.78
62025;BME280;47978;49.118;12.146;2023-09-19T09:36:38;97370.75;;;18.56;79.14
62025;BME280;47978;49.118;12.146;2023-09-19T09:40:46;97374.44;;;18.28;79.25
62025;BME280;47978;49.118;12.146;2023-09-19T09:45:12;97383.47;;;18.22;78.34
62025;BME280;47978;49.118;12.146;2023-09-19T09:49:22;97390.03;;;18.29;78.75
62025;BME280;47978;49.118;12.146;2023-09-19T09:53:26;97390.66;;;18.38;76.18
62025;BME280;47978;49.118;12.146;2023-09-19T09:57:27;97400.72;;;18.39;72.31
62025;BME280;47978;49.118;12.146;2023-09-19T10:01:46;97397.00;;;18.19;71.88
62025;BME280;47978;49.118;12.146;2023-09-19T10:05:53;97399.53;;;18.40;72.89
62025;BME280;47978;49.118;12.146;2023-09-19T10:09:56;97399.72;;;18.48;73.66
62025;BME280;47978;49.118;12.146;2023-09-19T10:14:00;97399.09;;;18.54;73.66
62025;BME280;47978;49.118;12.146;2023-09-19T10:18:04;97400.34;;;18.41;73.33
62025;BME280;47978;49.118;12.146;2023-09-19T10:22:07;97400.44;;;18.60;74.57
62025;BME280;47978;49.118;12.146;2023-09-19T10:26:11;97377.44;;;18.67;72.81
62025;BME280;47978;49.118;12.146;2023-09-19T10:30:13;97387.69;;;19.10;73.14
62025;BME280;47978;49.118;12.146;2023-09-19T10:34:15;97396.78;;;19.23;70.77
62025;BME280;47978;49.118;12.146;2023-09-19T10:38:19;97402.19;;;19.32;70.05
62025;BME280;47978;49.118;12.146;2023-09-19T10:42:22;97394.03;;;19.43;68.97
62025;BME280;47978;49.118;12.146;2023-09-19T10:46:25;97384.09;;;19.65;68.18
62025;BME280;47978;49.118;12.146;2023-09-19T10:50:29;97387.97;;;19.60;65.17
62025;BME280;47978;49.118;12.146;2023-09-19T10:54:34;97392.03;;;19.79;65.62
62025;BME280;47978;49.118;12.146;2023-09-19T10:58:38;97387.22;;;19.79;65.18
62025;BME280;47978;49.118;12.146;2023-09-19T11:02:41;97399.81;;;19.69;67.10
62025;BME280;47978;49.118;12.146;2023-09-19T11:06:59;97396.38;;;19.76;67.14
62025;BME280;47978;49.118;12.146;2023-09-19T11:11:01;97402.41;;;19.97;66.24
62025;BME280;47978;49.118;12.146;2023-09-19T11:15:05;97399.38;;;20.06;65.86
62025;BME280;47978;49.118;12.146;2023-09-19T11:19:06;97392.44;;;20.00;68.29
62025;BME280;47978;49.118;12.146;2023-09-19T11:23:19;97388.91;;;20.26;66.70
62025;BME280;47978;49.118;12.146;2023-09-19T11:27:21;97398.72;;;20.13;67.10
62025;BME280;47978;49.118;12.146;2023-09-19T11:31:43;97395.69;;;19.83;67.32
62025;BME280;47978;49.118;12.146;2023-09-19T11:36:01;97395.63;;;19.79;67.38
62025;BME280;47978;49.118;12.146;2023-09-19T11:40:06;97394.59;;;19.68;67.77
62025;BME280;47978;49.118;12.146;2023-09-19T11:44:33;97402.91;;;19.64;68.86
62025;BME280;47978;49.118;12.146;2023-09-19T11:48:38;97392.25;;;19.70;68.76
62025;BME280;47978;49.118;12.146;2023-09-19T11:52:41;97386.03;;;19.99;68.53
62025;BME280;47978;49.118;12.146;2023-09-19T11:56:43;97393.09;;;20.13;66.94
62025;BME280;47978;49.118;12.146;2023-09-19T12:00:45;97377.88;;;20.37;65.50
62025;BME280;47978;49.118;12.146;2023-09-19T12:04:53;97387.75;;;20.27;65.06
62025;BME280;47978;49.118;12.146;2023-09-19T12:08:55;97386.75;;;20.16;66.08
62025;BME280;47978;49.118;12.146;2023-09-19T12:12:57;97385.91;;;19.92;67.15
62025;BME280;47978;49.118;12.146;2023-09-19T12:16:58;97389.84;;;20.11;66.93
62025;BME280;47978;49.118;12.146;2023-09-19T12:21:01;97395.00;;;20.09;64.72
62025;BME280;47978;49.118;12.146;2023-09-19T12:25:05;97399.53;;;19.94;66.32
62025;BME280;47978;49.118;12.146;2023-09-19T12:29:12;97392.59;;;19.88;66.01
62025;BME280;47978;49.118;12.146;2023-09-19T12:33:16;97391.63;;;19.99;66.09
62025;BME280;47978;49.118;12.146;2023-09-19T12:37:19;97382.00;;;20.20;66.23
62025;BME280;47978;49.118;12.146;2023-09-19T12:41:20;97378.38;;;20.19;65.64
62025;BME280;47978;49.118;12.146;2023-09-19T12:45:22;97373.09;;;20.37;66.73
62025;BME280;47978;49.118;12.146;2023-09-19T12:49:24;97369.94;;;20.62;65.19
62025;BME280;47978;49.118;12.146;2023-09-19T12:53:27;97372.19;;;20.76;63.42
62025;BME280;47978;49.118;12.146;2023-09-19T12:57:28;97352.94;;;21.04;63.05
62025;BME280;47978;49.118;12.146;2023-09-19T13:01:30;97362.16;;;21.01;59.40
62025;BME280;47978;49.118;12.146;2023-09-19T13:05:47;97368.56;;;21.28;59.66
62025;BME280;47978;49.118;12.146;2023-09-19T13:10:04;97362.31;;;21.12;56.23
62025;BME280;47978;49.118;12.146;2023-09-19T13:14:17;97360.81;;;20.69;57.90
62025;BME280;47978;49.118;12.146;2023-09-19T13:18:19;97361.75;;;20.53;57.93
62025;BME280;47978;49.118;12.146;2023-09-19T13:22:40;97362.06;;;20.71;57.01
62025;BME280;47978;49.118;12.146;2023-09-19T13:26:43;97352.81;;;20.48;58.86
62025;BME280;47978;49.118;12.146;2023-09-19T13:30:44;97346.00;;;20.49;56.58
62025;BME280;47978;49.118;12.146;2023-09-19T13:34:46;97357.97;;;20.45;58.98
62025;BME280;47978;49.118;12.146;2023-09-19T13:38:47;97349.16;;;20.66;57.86
62025;BME280;47978;49.118;12.146;2023-09-19T13:42:50;97348.63;;;20.84;59.00
62025;BME280;47978;49.118;12.146;2023-09-19T13:46:52;97343.00;;;20.84;58.15
62025;BME280;47978;49.118;12.146;2023-09-19T13:50:54;97343.72;;;21.04;57.92
62025;BME280;47978;49.118;12.146;2023-09-19T13:54:56;97346.19;;;20.82;57.86
62025;BME280;47978;49.118;12.146;2023-09-19T13:58:59;97356.31;;;20.87;58.93
62025;BME280;47978;49.118;12.146;2023-09-19T14:03:00;97346.63;;;20.84;60.12
62025;BME280;47978;49.118;12.146;2023-09-19T14:07:03;97349.91;;;20.63;58.03
62025;BME280;47978;49.118;12.146;2023-09-19T14:11:05;97342.19;;;20.60;58.25
62025;BME280;47978;49.118;12.146;2023-09-19T14:15:09;97344.84;;;20.73;58.38
62025;BME280;47978;49.118;12.146;2023-09-19T14:19:10;97340.25;;;20.87;58.55
62025;BME280;47978;49.118;12.146;2023-09-19T14:23:12;97341.53;;;20.94;57.07
62025;BME280;47978;49.118;12.146;2023-09-19T14:27:14;97341.84;;;20.88;56.06
62025;BME280;47978;49.118;12.146;2023-09-19T14:31:16;97332.88;;;20.79;55.81
62025;BME280;47978;49.118;12.146;2023-09-19T14:35:18;97331.16;;;20.71;56.43
62025;BME280;47978;49.118;12.146;2023-09-19T14:39:20;97330.78;;;20.50;57.94
62025;BME280;47978;49.118;12.146;2023-09-19T14:43:21;97322.75;;;20.52;58.09
62025;BME280;47978;49.118;12.146;2023-09-19T14:47:24;97326.53;;;20.59;57.72
62025;BME280;47978;49.118;12.146;2023-09-19T14:51:30;97322.28;;;20.46;57.92
62025;BME280;47978;49.118;12.146;2023-09-19T14:55:31;97321.47;;;20.45;56.89
62025;BME280;47978;49.118;12.146;2023-09-19T14:59:38;97324.13;;;20.58;58.07
62025;BME280;47978;49.118;12.146;2023-09-19T15:03:42;97322.50;;;20.57;57.18
62025;BME280;47978;49.118;12.146;2023-09-19T15:07:43;97322.66;;;20.44;58.13
62025;BME280;47978;49.118;12.146;2023-09-19T15:11:45;97321.97;;;20.51;58.71
62025;BME280;47978;49.118;12.146;2023-09-19T15:15:47;97311.38;;;20.41;59.13
62025;BME280;47978;49.118;12.146;2023-09-19T15:19:50;97310.66;;;20.48;59.15
62025;BME280;47978;49.118;12.146;2023-09-19T15:23:52;97321.16;;;20.51;59.75
62025;BME280;47978;49.118;12.146;2023-09-19T15:27:54;97318.88;;;20.56;59.95
62025;BME280;47978;49.118;12.146;2023-09-19T15:31:55;97319.84;;;20.44;59.47
62025;BME280;47978;49.118;12.146;2023-09-19T15:36:05;97314.34;;;20.52;59.37
62025;BME280;47978;49.118;12.146;2023-09-19T15:40:08;97323.53;;;20.49;59.59
62025;BME280;47978;49.118;12.146;2023-09-19T15:44:13;97325.78;;;20.39;58.13
62025;BME280;47978;49.118;12.146;2023-09-19T15:48:16;97317.41;;;20.20;56.57
62025;BME280;47978;49.118;12.146;2023-09-19T15:52:18;97311.38;;;20.18;57.24
62025;BME280;47978;49.118;12.146;2023-09-19T15:56:20;97320.16;;;20.16;57.76
62025;BME280;47978;49.118;12.146;2023-09-19T16:00:22;97317.34;;;20.16;56.92
62025;BME280;47978;49.118;12.146;2023-09-19T16:04:24;97310.94;;;20.16;57.35
62025;BME280;47978;49.118;12.146;2023-09-19T16:08:27;97309.63;;;20.10;57.90
62025;BME280;47978;49.118;12.146;2023-09-19T16:12:28;97312.28;;;20.03;58.76
62025;BME280;47978;49.118;12.146;2023-09-19T16:16:30;97307.72;;;19.94;58.94
62025;BME280;47978;49.118;12.146;2023-09-19T16:20:32;97311.22;;;19.88;59.71
62025;BME280;47978;49.118;12.146;2023-09-19T16:24:35;97313.97;;;19.84;59.73
62025;BME280;47978;49.118;12.146;2023-09-19T16:28:36;97319.34;;;19.73;61.02
62025;BME280;47978;49.118;12.146;2023-09-19T16:32:38;97313.28;;;19.52;65.80
62025;BME280;47978;49.118;12.146;2023-09-19T16:36:40;97321.94;;;18.73;70.16
62025;BME280;47978;49.118;12.146;2023-09-19T16:40:52;97317.25;;;18.13;72.68
62025;BME280;47978;49.118;12.146;2023-09-19T16:44:54;97317.22;;;17.82;75.64
62025;BME280;47978;49.118;12.146;2023-09-19T16:48:55;97317.38;;;17.45;77.83
62025;BME280;47978;49.118;12.146;2023-09-19T16:53:00;97324.22;;;17.07;79.76
62025;BME280;47978;49.118;12.146;2023-09-19T16:57:03;97322.75;;;16.73;81.06
62025;BME280;47978;49.118;12.146;2023-09-19T17:01:06;97321.72;;;16.53;82.41
62025;BME280;47978;49.118;12.146;2023-09-19T17:05:08;97322.75;;;16.24;83.88
62025;BME280;47978;49.118;12.146;2023-09-19T17:09:09;97321.91;;;15.99;85.41
62025;BME280;47978;49.118;12.146;2023-09-19T17:13:12;97327.13;;;15.67;88.02
62025;BME280;47978;49.118;12.146;2023-09-19T17:17:14;97333.00;;;15.53;89.51
62025;BME280;47978;49.118;12.146;2023-09-19T17:21:15;97325.16;;;15.34;91.00
62025;BME280;47978;49.118;12.146;2023-09-19T17:25:17;97331.69;;;15.17;91.99
62025;BME280;47978;49.118;12.146;2023-09-19T17:29:20;97337.59;;;14.95;92.82
62025;BME280;47978;49.118;12.146;2023-09-19T17:33:21;97338.00;;;14.84;93.66
62025;BME280;47978;49.118;12.146;2023-09-19T17:37:23;97337.78;;;14.69;94.60
62025;BME280;47978;49.118;12.146;2023-09-19T17:41:25;97341.50;;;14.43;96.06
62025;BME280;47978;49.118;12.146;2023-09-19T17:45:28;97345.78;;;14.32;97.08
62025;BME280;47978;49.118;12.146;2023-09-19T17:49:30;97350.28;;;14.15;97.36
62025;BME280;47978;49.118;12.146;2023-09-19T17:53:32;97346.88;;;14.10;98.10
62025;BME280;47978;49.118;12.146;2023-09-19T17:57:34;97345.75;;;13.93;98.74
62025;BME280;47978;49.118;12.146;2023-09-19T18:01:37;97353.97;;;13.81;99.41
62025;BME280;47978;49.118;12.146;2023-09-19T18:05:43;97347.66;;;13.63;100.00
62025;BME280;47978;49.118;12.146;2023-09-19T18:09:44;97358.09;;;13.66;100.00
62025;BME280;47978;49.118;12.146;2023-09-19T18:13:47;97362.38;;;13.55;100.00
62025;BME280;47978;49.118;12.146;2023-09-19T18:17:50;97364.50;;;13.41;100.00
62025;BME280;47978;49.118;12.146;2023-09-19T18:21:51;97374.78;;;13.32;100.00
62025;BME280;47978;49.118;12.146;2023-09-19T18:25:55;97373.31;;;13.25;100.00
62025;BME280;47978;49.118;12.146;2023-09-19T18:29:57;97373.78;;;13.19;100.00
62025;BME280;47978;49.118;12.146;2023-09-19T18:34:00;97386.50;;;13.11;100.00
62025;BME280;47978;49.118;12.146;2023-09-19T18:38:01;97395.84;;;13.15;100.00
62025;BME280;47978;49.118;12.146;2023-09-19T18:42:03;97401.84;;;13.00;100.00
62025;BME280;47978;49.118;12.146;2023-09-19T18:46:05;97396.13;;;12.88;100.00
62025;BME280;47978;49.118;12.146;2023-09-19T18:50:09;97396.91;;;12.79;100.00
62025;BME280;47978;49.118;12.146;2023-09-19T18:54:11;97399.34;;;12.72;100.00
62025;BME280;47978;49.118;12.146;2023-09-19T18:58:14;97406.16;;;12.66;100.00
62025;BME280;47978;49.118;12.146;2023-09-19T19:02:16;97397.34;;;12.55;100.00
62025;BME280;47978;49.118;12.146;2023-09-19T19:06:19;97388.34;;;12.50;100.00
62025;BME280;47978;49.118;12.146;2023-09-19T19:10:20;97399.63;;;12.53;100.00
62025;BME280;47978;49.118;12.146;2023-09-19T19:14:22;97405.00;;;12.50;100.00
62025;BME280;47978;49.118;12.146;2023-09-19T19:18:23;97400.09;;;12.47;100.00
62025;BME280;47978;49.118;12.146;2023-09-19T19:22:28;97397.09;;;12.34;100.00
62025;BME280;47978;49.118;12.146;2023-09-19T19:26:29;97409.16;;;12.30;100.00
62025;BME280;47978;49.118;12.146;2023-09-19T19:30:31;97404.59;;;12.34;100.00
62025;BME280;47978;49.118;12.146;2023-09-19T19:34:32;97402.78;;;12.29;100.00
62025;BME280;47978;49.118;12.146;2023-09-19T19:38:36;97412.38;;;12.23;100.00
62025;BME280;47978;49.118;12.146;2023-09-19T19:42:38;97413.13;;;12.15;100.00
62025;BME280;47978;49.118;12.146;2023-09-19T19:46:39;97414.13;;;12.10;100.00
62025;BME280;47978;49.118;12.146;2023-09-19T19:50:41;97411.50;;;12.14;100.00
62025;BME280;47978;49.118;12.146;2023-09-19T19:54:44;97412.03;;;12.16;100.00
62025;BME280;47978;49.118;12.146;2023-09-19T19:58:45;97418.84;;;12.10;100.00
62025;BME280;47978;49.118;12.146;2023-09-19T20:02:47;97435.13;;;12.11;100.00
62025;BME280;47978;49.118;12.146;2023-09-19T20:06:49;97432.03;;;12.04;100.00
62025;BME280;47978;49.118;12.146;2023-09-19T20:10:52;97439.81;;;12.02;100.00
62025;BME280;47978;49.118;12.146;2023-09-19T20:14:54;97436.50;;;11.91;100.00
62025;BME280;47978;49.118;12.146;2023-09-19T20:18:57;97429.31;;;11.90;100.00
62025;BME280;47978;49.118;12.146;2023-09-19T20:22:59;97429.00;;;11.92;100.00
62025;BME280;47978;49.118;12.146;2023-09-19T20:27:03;97434.16;;;11.85;100.00
62025;BME280;47978;49.118;12.146;2023-09-19T20:31:06;97435.00;;;11.85;100.00
62025;BME280;47978;49.118;12.146;2023-09-19T20:35:07;97435.81;;;11.86;100.00
62025;BME280;47978;49.118;12.146;2023-09-19T20:39:09;97444.19;;;11.81;100.00
62025;BME280;47978;49.118;12.146;2023-09-19T20:43:12;97443.09;;;11.82;100.00
62025;BME280;47978;49.118;12.146;2023-09-19T20:47:13;97448.31;;;11.83;100.00
62025;BME280;47978;49.118;12.146;2023-09-19T20:51:15;97450.25;;;11.83;100.00
62025;BME280;47978;49.118;12.146;2023-09-19T20:55:17;97442.75;;;11.83;100.00
62025;BME280;47978;49.118;12.146;2023-09-19T20:59:20;97449.56;;;11.77;100.00
62025;BME280;47978;49.118;12.146;2023-09-19T21:03:21;97446.78;;;11.77;100.00